Sirios Cement IV — 9HQE8 — position and weather

sailwx.info

Track history (hours):
 
Tides and Currents Weather Stations Pressure Air Temp Water Temp Dewpoint Dewpoint Depression Visibility Wind Speed Wind Dir Waves Ship Positions

Sirios Cement IV

Last reported at 2015-Jan-04 09:23 UTC. Time now 2015-Jan-27 12:27 UTC.
Position N 41°49' E 016°50'.
Warning: this ship's position is 23 days out of date.

Length 134 m; draft 8.5 m.

Type: Cargo ship. MMSI: 256278000.

Date/timePositionNaut miles runAvg speedWind from/ knotsBaromVisibWave heightAir tempDewpointWater temp
2015-Jan-04 09:23N 41°49' E 016°50'100 9.0
2015-Jan-03 22:16N 40°39' E 018°25'311 8.7
2015-Jan-02 10:30N 36°26' E 022°16'98 4.5
2015-Jan-01 12:27N 37°37' E 023°41'9 8.9
2015-Jan-01 11:29N 37°46' E 023°39'9 9.7
2015-Jan-01 10:33N 37°54' E 023°36'9 2.2
2015-Jan-01 06:27N 38°03' E 023°32'0 0.0
2015-Jan-01 03:06N 38°03' E 023°32'0 0.0
2015-Jan-01 02:21N 38°03' E 023°32'0 0.0
2015-Jan-01 01:21N 38°03' E 023°32'0 0.0
2015-Jan-01 00:27N 38°03' E 023°32'0 0.0
2014-Dec-31 23:33N 38°03' E 023°32'0 0.0
2014-Dec-31 22:06N 38°03' E 023°32'0 0.0
2014-Dec-31 20:12N 38°03' E 023°32'0 0.0
2014-Dec-31 19:33N 38°03' E 023°32'0 0.0
2014-Dec-31 18:24N 38°03' E 023°32'0 0.0
2014-Dec-31 16:21N 38°03' E 023°32'0 0.0
2014-Dec-31 15:21N 38°03' E 023°32'0 0.0
2014-Dec-31 14:21N 38°03' E 023°32'0 0.0
2014-Dec-31 13:15N 38°03' E 023°32'0 0.0
2014-Dec-31 11:27N 38°03' E 023°32'0 0.0
2014-Dec-31 08:33N 38°03' E 023°32'0 0.0
2014-Dec-31 07:12N 38°03' E 023°32'0 0.0
2014-Dec-31 06:30N 38°03' E 023°32'0 0.0
2014-Dec-31 05:06N 38°03' E 023°32'0 0.0
2014-Dec-31 04:21N 38°03' E 023°32'0 0.0
2014-Dec-31 03:33N 38°03' E 023°32'0 0.0
2014-Dec-31 02:33N 38°03' E 023°32'0 0.0
2014-Dec-31 01:33N 38°03' E 023°32'0 0.0
2014-Dec-31 00:30N 38°03' E 023°32'0 0.0
2014-Dec-30 22:21N 38°03' E 023°32'0 0.0
2014-Dec-30 21:21N 38°03' E 023°32'0 0.0
2014-Dec-30 20:24N 38°03' E 023°32'0 0.0
2014-Dec-30 19:15N 38°03' E 023°32'0 0.0
2014-Dec-30 18:30N 38°03' E 023°32'0 0.0
2014-Dec-30 16:18N 38°03' E 023°32'0 0.0
2014-Dec-30 15:15N 38°03' E 023°32'0 0.0
2014-Dec-30 14:30N 38°03' E 023°32'0 0.0
2014-Dec-30 13:25N 38°03' E 023°32'0 0.0
2014-Dec-30 12:06N 38°03' E 023°32'0 0.0
2014-Dec-30 09:21N 38°03' E 023°32'0 0.0
2014-Dec-30 08:33N 38°03' E 023°32'0 0.0
2014-Dec-30 07:27N 38°03' E 023°32'0 0.0
2014-Dec-30 06:27N 38°03' E 023°32'0 0.0
2014-Dec-30 05:24N 38°03' E 023°32'0 0.0
2014-Dec-30 04:30N 38°03' E 023°32'0 0.0
2014-Dec-30 01:33N 38°03' E 023°32'0 0.0
2014-Dec-30 00:09N 38°03' E 023°32'0 0.0
2014-Dec-29 23:09N 38°03' E 023°32'0 0.0
2014-Dec-29 22:19N 38°03' E 023°32'0 0.0
2014-Dec-29 21:33N 38°03' E 023°32'0 0.0
2014-Dec-29 20:30N 38°03' E 023°32'0 0.0
2014-Dec-29 19:27N 38°03' E 023°32'0 0.0
2014-Dec-29 18:33N 38°03' E 023°32'0 0.0
2014-Dec-29 17:30N 38°03' E 023°32'0 0.0
2014-Dec-29 16:24N 38°03' E 023°32'0 0.0
2014-Dec-29 15:15N 38°03' E 023°32'0 0.0
2014-Dec-29 12:33N 38°03' E 023°32'0 0.0
2014-Dec-29 11:12N 38°03' E 023°32'0 0.0
2014-Dec-29 10:24N 38°03' E 023°32'0 0.0
2014-Dec-29 09:27N 38°03' E 023°32'0 0.0
2014-Dec-29 06:29N 38°03' E 023°32'0 0.0
2014-Dec-28 23:16N 38°03' E 023°32'0 0.0
2014-Dec-28 20:21N 38°03' E 023°32'0 0.0
2014-Dec-28 19:27N 38°03' E 023°32'0 0.0
2014-Dec-28 18:24N 38°03' E 023°32'0 0.0
2014-Dec-28 17:18N 38°03' E 023°32'0 0.0
2014-Dec-28 16:24N 38°03' E 023°32'0 0.0
2014-Dec-28 15:24N 38°03' E 023°32'0 0.0
2014-Dec-28 14:27N 38°03' E 023°32'0 0.0
2014-Dec-28 13:27N 38°03' E 023°32'0 0.0
2014-Dec-28 12:27N 38°03' E 023°32'0 0.0
2014-Dec-28 10:30N 38°03' E 023°32'0 0.0
2014-Dec-28 08:24N 38°03' E 023°32'0 0.0
2014-Dec-28 07:12N 38°03' E 023°32'0 0.0
2014-Dec-28 06:21N 38°03' E 023°32'0 0.0
2014-Dec-28 05:33N 38°03' E 023°32'0 0.0
2014-Dec-28 04:27N 38°03' E 023°32'0 0.0
2014-Dec-28 03:33N 38°03' E 023°32'0 0.0
2014-Dec-28 02:09N 38°03' E 023°32'0 0.0
2014-Dec-28 01:30N 38°03' E 023°32'0 0.0
2014-Dec-28 00:30N 38°03' E 023°32'0 0.0
2014-Dec-27 23:30N 38°03' E 023°32'0 0.0
2014-Dec-27 22:27N 38°03' E 023°32'0 0.0
2014-Dec-27 21:30N 38°03' E 023°32'0 0.0
2014-Dec-27 20:33N 38°03' E 023°32'0 0.0
2014-Dec-27 19:33N 38°03' E 023°32'0 0.0
2014-Dec-27 18:33N 38°03' E 023°32'0 0.0
2014-Dec-27 17:30N 38°03' E 023°32'0 0.0
2014-Dec-27 16:30N 38°03' E 023°32'0 0.0
2014-Dec-27 15:30N 38°03' E 023°32'0 0.0
2014-Dec-27 11:12N 38°03' E 023°32'0 0.0
2014-Dec-27 10:27N 38°03' E 023°32'0 0.0
2014-Dec-27 08:12N 38°03' E 023°32'0 0.0
2014-Dec-27 07:33N 38°03' E 023°32'0 0.0
2014-Dec-27 06:33N 38°03' E 023°32'0 0.0
2014-Dec-27 05:21N 38°03' E 023°32'0 0.0
2014-Dec-27 04:33N 38°03' E 023°32'0 0.0
2014-Dec-27 02:27N 38°03' E 023°32'0 0.0
2014-Dec-27 01:09N 38°03' E 023°32'0 0.0
2014-Dec-27 00:32N 38°03' E 023°32'0 0.0
2014-Dec-26 23:20N 38°03' E 023°32'0 0.0
2014-Dec-26 20:29N 38°03' E 023°32'0 0.0
2014-Dec-26 19:32N 38°03' E 023°32'0 0.0
2014-Dec-26 18:23N 38°03' E 023°32'0 0.0
2014-Dec-26 17:29N 38°03' E 023°32'0 0.0
2014-Dec-26 16:29N 38°03' E 023°32'0 0.0
2014-Dec-26 15:20N 38°03' E 023°32'0 0.0
2014-Dec-26 14:11N 38°03' E 023°32'0 0.0
2014-Dec-26 11:29N 38°03' E 023°32'0 0.0
2014-Dec-26 10:17N 38°03' E 023°32'0 0.0
2014-Dec-26 09:29N 38°03' E 023°32'0 0.0
2014-Dec-26 08:14N 38°03' E 023°32'0 0.0
2014-Dec-26 07:29N 38°03' E 023°32'0 0.0
2014-Dec-26 05:32N 38°03' E 023°32'0 0.0
2014-Dec-26 04:23N 38°03' E 023°32'0 0.0
2014-Dec-26 03:14N 38°03' E 023°32'0 0.0
2014-Dec-26 02:11N 38°03' E 023°32'0 0.0
2014-Dec-26 00:23N 38°03' E 023°32'0 0.0
2014-Dec-25 23:32N 38°03' E 023°32'0 0.0
2014-Dec-25 22:05N 38°03' E 023°32'0 0.0
2014-Dec-25 21:17N 38°03' E 023°32'0 0.0
2014-Dec-25 20:32N 38°03' E 023°32'0 0.0
2014-Dec-25 19:23N 38°03' E 023°32'0 0.0
2014-Dec-25 18:08N 38°03' E 023°32'0 0.0
2014-Dec-25 17:23N 38°03' E 023°32'0 0.0
2014-Dec-25 16:17N 38°03' E 023°32'0 0.0
2014-Dec-25 15:32N 38°03' E 023°32'0 0.0
2014-Dec-25 14:26N 38°03' E 023°32'0 0.0
2014-Dec-25 11:20N 38°03' E 023°32'0 0.0
2014-Dec-25 10:11N 38°03' E 023°32'0 0.0
2014-Dec-25 09:29N 38°03' E 023°32'  
Track history (hours):
 
Tides and Currents Weather Stations Pressure Air Temp Water Temp Dewpoint Dewpoint Depression Visibility Wind Speed Wind Dir Waves Ship Positions

Sirios Cement IV

Last reported at 2015-Jan-04 09:23 UTC. Time now 2015-Jan-27 12:27 UTC.
Position N 41°49' E 016°50'.
Warning: this ship's position is 23 days out of date.

Length 134 m; draft 8.5 m.

Type: Cargo ship. MMSI: 256278000.

Date/timePositionNaut miles runAvg speedWind from/ knotsBaromVisibWave heightAir tempDewpointWater temp
2015-Jan-04 09:23N 41°49' E 016°50'100 9.0
2015-Jan-03 22:16N 40°39' E 018°25'311 8.7
2015-Jan-02 10:30N 36°26' E 022°16'98 4.5
2015-Jan-01 12:27N 37°37' E 023°41'9 8.9
2015-Jan-01 11:29N 37°46' E 023°39'9 9.7
2015-Jan-01 10:33N 37°54' E 023°36'9 2.2
2015-Jan-01 06:27N 38°03' E 023°32'0 0.0
2015-Jan-01 03:06N 38°03' E 023°32'0 0.0
2015-Jan-01 02:21N 38°03' E 023°32'0 0.0
2015-Jan-01 01:21N 38°03' E 023°32'0 0.0
2015-Jan-01 00:27N 38°03' E 023°32'0 0.0
2014-Dec-31 23:33N 38°03' E 023°32'0 0.0
2014-Dec-31 22:06N 38°03' E 023°32'0 0.0
2014-Dec-31 20:12N 38°03' E 023°32'0 0.0
2014-Dec-31 19:33N 38°03' E 023°32'0 0.0
2014-Dec-31 18:24N 38°03' E 023°32'0 0.0
2014-Dec-31 16:21N 38°03' E 023°32'0 0.0
2014-Dec-31 15:21N 38°03' E 023°32'0 0.0
2014-Dec-31 14:21N 38°03' E 023°32'0 0.0
2014-Dec-31 13:15N 38°03' E 023°32'0 0.0
2014-Dec-31 11:27N 38°03' E 023°32'0 0.0
2014-Dec-31 08:33N 38°03' E 023°32'0 0.0
2014-Dec-31 07:12N 38°03' E 023°32'0 0.0
2014-Dec-31 06:30N 38°03' E 023°32'0 0.0
2014-Dec-31 05:06N 38°03' E 023°32'0 0.0
2014-Dec-31 04:21N 38°03' E 023°32'0 0.0
2014-Dec-31 03:33N 38°03' E 023°32'0 0.0
2014-Dec-31 02:33N 38°03' E 023°32'0 0.0
2014-Dec-31 01:33N 38°03' E 023°32'0 0.0
2014-Dec-31 00:30N 38°03' E 023°32'0 0.0
2014-Dec-30 22:21N 38°03' E 023°32'0 0.0
2014-Dec-30 21:21N 38°03' E 023°32'0 0.0
2014-Dec-30 20:24N 38°03' E 023°32'0 0.0
2014-Dec-30 19:15N 38°03' E 023°32'0 0.0
2014-Dec-30 18:30N 38°03' E 023°32'0 0.0
2014-Dec-30 16:18N 38°03' E 023°32'0 0.0
2014-Dec-30 15:15N 38°03' E 023°32'0 0.0
2014-Dec-30 14:30N 38°03' E 023°32'0 0.0
2014-Dec-30 13:25N 38°03' E 023°32'0 0.0
2014-Dec-30 12:06N 38°03' E 023°32'0 0.0
2014-Dec-30 09:21N 38°03' E 023°32'0 0.0
2014-Dec-30 08:33N 38°03' E 023°32'0 0.0
2014-Dec-30 07:27N 38°03' E 023°32'0 0.0
2014-Dec-30 06:27N 38°03' E 023°32'0 0.0
2014-Dec-30 05:24N 38°03' E 023°32'0 0.0
2014-Dec-30 04:30N 38°03' E 023°32'0 0.0
2014-Dec-30 01:33N 38°03' E 023°32'0 0.0
2014-Dec-30 00:09N 38°03' E 023°32'0 0.0
2014-Dec-29 23:09N 38°03' E 023°32'0 0.0
2014-Dec-29 22:19N 38°03' E 023°32'0 0.0
2014-Dec-29 21:33N 38°03' E 023°32'0 0.0
2014-Dec-29 20:30N 38°03' E 023°32'0 0.0
2014-Dec-29 19:27N 38°03' E 023°32'0 0.0
2014-Dec-29 18:33N 38°03' E 023°32'0 0.0
2014-Dec-29 17:30N 38°03' E 023°32'0 0.0
2014-Dec-29 16:24N 38°03' E 023°32'0 0.0
2014-Dec-29 15:15N 38°03' E 023°32'0 0.0
2014-Dec-29 12:33N 38°03' E 023°32'0 0.0
2014-Dec-29 11:12N 38°03' E 023°32'0 0.0
2014-Dec-29 10:24N 38°03' E 023°32'0 0.0
2014-Dec-29 09:27N 38°03' E 023°32'0 0.0
2014-Dec-29 06:29N 38°03' E 023°32'0 0.0
2014-Dec-28 23:16N 38°03' E 023°32'0 0.0
2014-Dec-28 20:21N 38°03' E 023°32'0 0.0
2014-Dec-28 19:27N 38°03' E 023°32'0 0.0
2014-Dec-28 18:24N 38°03' E 023°32'0 0.0
2014-Dec-28 17:18N 38°03' E 023°32'0 0.0
2014-Dec-28 16:24N 38°03' E 023°32'0 0.0
2014-Dec-28 15:24N 38°03' E 023°32'0 0.0
2014-Dec-28 14:27N 38°03' E 023°32'0 0.0
2014-Dec-28 13:27N 38°03' E 023°32'0 0.0
2014-Dec-28 12:27N 38°03' E 023°32'0 0.0
2014-Dec-28 10:30N 38°03' E 023°32'0 0.0
2014-Dec-28 08:24N 38°03' E 023°32'0 0.0
2014-Dec-28 07:12N 38°03' E 023°32'0 0.0
2014-Dec-28 06:21N 38°03' E 023°32'0 0.0
2014-Dec-28 05:33N 38°03' E 023°32'0 0.0
2014-Dec-28 04:27N 38°03' E 023°32'0 0.0
2014-Dec-28 03:33N 38°03' E 023°32'0 0.0
2014-Dec-28 02:09N 38°03' E 023°32'0 0.0
2014-Dec-28 01:30N 38°03' E 023°32'0 0.0
2014-Dec-28 00:30N 38°03' E 023°32'0 0.0
2014-Dec-27 23:30N 38°03' E 023°32'0 0.0
2014-Dec-27 22:27N 38°03' E 023°32'0 0.0
2014-Dec-27 21:30N 38°03' E 023°32'0 0.0
2014-Dec-27 20:33N 38°03' E 023°32'0 0.0
2014-Dec-27 19:33N 38°03' E 023°32'0 0.0
2014-Dec-27 18:33N 38°03' E 023°32'0 0.0
2014-Dec-27 17:30N 38°03' E 023°32'0 0.0
2014-Dec-27 16:30N 38°03' E 023°32'0 0.0
2014-Dec-27 15:30N 38°03' E 023°32'0 0.0
2014-Dec-27 11:12N 38°03' E 023°32'0 0.0
2014-Dec-27 10:27N 38°03' E 023°32'0 0.0
2014-Dec-27 08:12N 38°03' E 023°32'0 0.0
2014-Dec-27 07:33N 38°03' E 023°32'0 0.0
2014-Dec-27 06:33N 38°03' E 023°32'0 0.0
2014-Dec-27 05:21N 38°03' E 023°32'0 0.0
2014-Dec-27 04:33N 38°03' E 023°32'0 0.0
2014-Dec-27 02:27N 38°03' E 023°32'0 0.0
2014-Dec-27 01:09N 38°03' E 023°32'0 0.0
2014-Dec-27 00:32N 38°03' E 023°32'0 0.0
2014-Dec-26 23:20N 38°03' E 023°32'0 0.0
2014-Dec-26 20:29N 38°03' E 023°32'0 0.0
2014-Dec-26 19:32N 38°03' E 023°32'0 0.0
2014-Dec-26 18:23N 38°03' E 023°32'0 0.0
2014-Dec-26 17:29N 38°03' E 023°32'0 0.0
2014-Dec-26 16:29N 38°03' E 023°32'0 0.0
2014-Dec-26 15:20N 38°03' E 023°32'0 0.0
2014-Dec-26 14:11N 38°03' E 023°32'0 0.0
2014-Dec-26 11:29N 38°03' E 023°32'0 0.0
2014-Dec-26 10:17N 38°03' E 023°32'0 0.0
2014-Dec-26 09:29N 38°03' E 023°32'0 0.0
2014-Dec-26 08:14N 38°03' E 023°32'0 0.0
2014-Dec-26 07:29N 38°03' E 023°32'0 0.0
2014-Dec-26 05:32N 38°03' E 023°32'0 0.0
2014-Dec-26 04:23N 38°03' E 023°32'0 0.0
2014-Dec-26 03:14N 38°03' E 023°32'0 0.0
2014-Dec-26 02:11N 38°03' E 023°32'0 0.0
2014-Dec-26 00:23N 38°03' E 023°32'0 0.0
2014-Dec-25 23:32N 38°03' E 023°32'0 0.0
2014-Dec-25 22:05N 38°03' E 023°32'0 0.0
2014-Dec-25 21:17N 38°03' E 023°32'0 0.0
2014-Dec-25 20:32N 38°03' E 023°32'0 0.0
2014-Dec-25 19:23N 38°03' E 023°32'0 0.0
2014-Dec-25 18:08N 38°03' E 023°32'0 0.0
2014-Dec-25 17:23N 38°03' E 023°32'0 0.0
2014-Dec-25 16:17N 38°03' E 023°32'0 0.0
2014-Dec-25 15:32N 38°03' E 023°32'0 0.0
2014-Dec-25 14:26N 38°03' E 023°32'0 0.0
2014-Dec-25 11:20N 38°03' E 023°32'0 0.0
2014-Dec-25 10:11N 38°03' E 023°32'0 0.0
2014-Dec-25 09:29N 38°03' E 023°32'  

Dump ship's entire track history